Terminal Aerodrome Forecast
Issued by NWS

Home | Current Version | Previous Version | Text Only | Print | Product List | Glossary Off
Versions: 1 2 3 4 5 6 7 8 9 10 11 12 13 14 15 16 17 18 19 20 21 22 23

000
FTUS43 KBIS 231400 AAA
TAFMOT
TAF AMD
KMOT 231435Z 2315/2412 08007KT P6SM SCT005 OVC010
      TEMPO 2315/2316 SCT010 OVC050
     FM231700 13014KT P6SM SCT050
     FM240100 11012KT P6SM BKN050
      TEMPO 2405/2409 -TSRA OVC040CB=

USA.gov is the U.S. government's official web portal to all federal, state and local government web resources and services.